createdAt,value
2023-02-18T00:00:06.836Z,17.23
2023-02-18T00:02:33.855Z,18.60
2023-02-18T00:05:00.358Z,18.30
2023-02-18T00:07:26.875Z,18.30
2023-02-18T00:09:53.365Z,18.47
2023-02-18T00:12:19.885Z,19.13
2023-02-18T00:14:46.388Z,18.33
2023-02-18T00:17:12.887Z,18.23
2023-02-18T00:19:39.382Z,17.20
2023-02-18T00:22:05.919Z,18.00
2023-02-18T00:24:32.539Z,18.33
2023-02-18T00:26:59.056Z,19.37
2023-02-18T00:29:25.727Z,18.13
2023-02-18T00:31:52.281Z,17.93
2023-02-18T00:34:18.883Z,18.97
2023-02-18T00:36:45.401Z,17.57
2023-02-18T00:39:11.877Z,16.70
2023-02-18T00:41:38.434Z,16.53
2023-02-18T00:44:04.983Z,14.80
2023-02-18T00:46:31.576Z,15.67
2023-02-18T00:48:58.110Z,15.63
2023-02-18T00:51:25.354Z,14.60
2023-02-18T00:53:51.868Z,13.50
2023-02-18T00:56:18.380Z,13.23
2023-02-18T00:58:44.989Z,14.27
2023-02-18T01:01:11.501Z,13.53
2023-02-18T01:03:38.016Z,13.50
2023-02-18T01:06:04.505Z,12.43
2023-02-18T01:08:30.995Z,12.33
2023-02-18T01:10:57.514Z,12.30
2023-02-18T01:13:24.057Z,11.40
2023-02-18T01:15:50.730Z,12.97
2023-02-18T01:18:17.344Z,12.07
2023-02-18T01:20:43.922Z,12.10
2023-02-18T01:23:10.438Z,12.50
2023-02-18T01:25:36.918Z,12.27
2023-02-18T01:28:03.443Z,12.37
2023-02-18T01:30:29.972Z,11.70
2023-02-18T01:32:56.479Z,12.50
2023-02-18T01:35:24.052Z,12.37
2023-02-18T01:37:50.554Z,12.07
2023-02-18T01:40:17.050Z,11.87
2023-02-18T01:42:43.542Z,11.30
2023-02-18T01:45:10.021Z,11.30
2023-02-18T01:47:36.554Z,11.13
2023-02-18T01:50:03.030Z,10.57
2023-02-18T01:52:32.343Z,11.13
2023-02-18T01:54:58.831Z,11.30
2023-02-18T01:57:25.414Z,9.50
2023-02-18T01:59:51.926Z,10.77
2023-02-18T02:02:18.443Z,10.40
2023-02-18T02:04:44.929Z,11.47
2023-02-18T02:07:11.449Z,9.80
2023-02-18T02:09:37.954Z,10.20
2023-02-18T02:12:04.492Z,10.77
2023-02-18T02:14:30.999Z,10.17
2023-02-18T02:16:57.501Z,10.57
2023-02-18T02:19:23.987Z,10.43
2023-02-18T02:21:50.467Z,11.10
2023-02-18T02:24:16.990Z,9.03
2023-02-18T02:26:43.582Z,10.73
2023-02-18T02:29:10.070Z,11.60
2023-02-18T02:31:36.571Z,10.77
2023-02-18T02:34:03.044Z,12.17
2023-02-18T02:36:29.556Z,11.33
2023-02-18T02:38:56.078Z,11.20
2023-02-18T02:41:22.571Z,12.83
2023-02-18T02:43:49.223Z,12.43
2023-02-18T02:46:15.702Z,12.10
2023-02-18T02:48:42.217Z,12.00
2023-02-18T02:51:08.709Z,11.33
2023-02-18T02:53:35.330Z,10.40
2023-02-18T02:56:01.937Z,10.90
2023-02-18T02:58:28.475Z,10.27
2023-02-18T03:00:55.018Z,11.03
2023-02-18T03:03:21.666Z,12.13
2023-02-18T03:05:48.153Z,10.97
2023-02-18T03:08:14.801Z,10.13
2023-02-18T03:10:41.289Z,10.70
2023-02-18T03:13:07.812Z,11.17
2023-02-18T03:15:34.293Z,10.93
2023-02-18T03:18:00.758Z,11.00
2023-02-18T03:20:27.601Z,10.73
2023-02-18T03:22:54.141Z,11.23
2023-02-18T03:25:20.659Z,10.43
2023-02-18T03:27:47.142Z,9.20
2023-02-18T03:30:13.852Z,9.70
2023-02-18T03:32:40.363Z,9.10
2023-02-18T03:35:06.849Z,10.13
2023-02-18T03:37:33.387Z,8.10
2023-02-18T03:39:59.864Z,8.13
2023-02-18T03:42:26.518Z,8.13
2023-02-18T03:44:52.987Z,7.00
2023-02-18T03:47:19.496Z,6.20
2023-02-18T03:49:46.027Z,7.03
2023-02-18T03:52:12.530Z,6.03
2023-02-18T03:54:39.022Z,5.57
2023-02-18T03:57:05.537Z,5.37
2023-02-18T03:59:32.014Z,5.50
2023-02-18T04:01:58.554Z,5.00
2023-02-18T04:04:25.061Z,4.53
2023-02-18T04:06:51.603Z,4.90
2023-02-18T04:09:18.097Z,4.90
2023-02-18T04:11:44.590Z,3.93
2023-02-18T04:14:11.108Z,4.00
2023-02-18T04:16:38.732Z,4.63
2023-02-18T04:19:05.242Z,4.87
2023-02-18T04:21:31.880Z,4.00
2023-02-18T04:23:58.348Z,4.40
2023-02-18T04:26:25.132Z,4.30
2023-02-18T04:28:51.890Z,4.30
2023-02-18T04:31:18.514Z,3.93
2023-02-18T04:33:45.325Z,4.70
2023-02-18T04:36:11.870Z,4.00
2023-02-18T04:38:38.424Z,4.87
2023-02-18T04:41:04.957Z,4.63
2023-02-18T04:43:31.438Z,3.77
2023-02-18T04:45:57.972Z,3.40
2023-02-18T04:48:24.550Z,4.10
2023-02-18T04:50:51.068Z,4.00
2023-02-18T04:53:17.525Z,4.20
2023-02-18T04:55:44.043Z,3.73
2023-02-18T04:58:10.740Z,3.20
2023-02-18T05:00:37.256Z,2.87
2023-02-18T05:03:03.778Z,2.93
2023-02-18T05:05:30.269Z,2.70
2023-02-18T05:07:56.759Z,2.77
2023-02-18T05:10:23.230Z,2.13
2023-02-18T05:12:49.800Z,2.40
2023-02-18T05:15:16.306Z,2.10
2023-02-18T05:17:42.829Z,1.13
2023-02-18T05:20:10.043Z,1.40
2023-02-18T05:22:36.634Z,1.30
2023-02-18T05:25:03.189Z,1.10
2023-02-18T05:27:29.711Z,0.97
2023-02-18T05:29:56.330Z,0.90
2023-02-18T05:32:22.864Z,1.20
2023-02-18T05:34:49.356Z,0.80
2023-02-18T05:37:16.915Z,0.80
2023-02-18T05:39:43.435Z,0.60
2023-02-18T05:42:09.930Z,0.90
2023-02-18T05:44:36.416Z,0.80
2023-02-18T05:47:02.904Z,0.70
2023-02-18T05:49:29.503Z,0.60
2023-02-18T05:51:56.021Z,0.40
2023-02-18T05:54:22.506Z,0.47
2023-02-18T05:56:48.990Z,0.30
2023-02-18T05:59:15.520Z,0.30
2023-02-18T06:01:42.191Z,0.50
2023-02-18T06:04:08.726Z,0.40
2023-02-18T06:06:35.217Z,0.47
2023-02-18T06:09:01.696Z,0.40
2023-02-18T06:11:28.185Z,0.40
2023-02-18T06:13:54.691Z,0.40
2023-02-18T06:16:21.309Z,0.40
2023-02-18T06:18:47.814Z,0.33
2023-02-18T06:21:14.448Z,0.40
2023-02-18T06:23:40.980Z,0.40
2023-02-18T06:26:07.852Z,0.40
2023-02-18T06:28:34.680Z,0.40
2023-02-18T06:31:01.267Z,0.33
2023-02-18T06:33:27.848Z,0.30
2023-02-18T06:35:54.362Z,0.50
2023-02-18T06:38:21.073Z,0.33
2023-02-18T06:40:47.587Z,0.50
2023-02-18T06:43:14.131Z,0.40
2023-02-18T06:45:40.597Z,0.40
2023-02-18T06:48:07.082Z,0.40
2023-02-18T06:50:33.600Z,0.40
2023-02-18T06:53:00.256Z,0.30
2023-02-18T06:55:26.750Z,0.40
2023-02-18T06:57:53.270Z,0.30
2023-02-18T07:00:19.962Z,0.40
2023-02-18T07:02:46.476Z,0.40
2023-02-18T07:05:12.995Z,0.40
2023-02-18T07:07:39.501Z,0.50
2023-02-18T07:10:06.236Z,0.40
2023-02-18T07:12:32.726Z,0.30
2023-02-18T07:14:59.252Z,0.50
2023-02-18T07:17:25.773Z,0.40
2023-02-18T07:19:52.256Z,0.40
2023-02-18T07:22:18.804Z,0.50
2023-02-18T07:24:45.294Z,0.40
2023-02-18T07:27:11.773Z,0.40
2023-02-18T07:29:38.282Z,0.40
2023-02-18T07:32:04.811Z,0.40
2023-02-18T07:34:31.371Z,0.40
2023-02-18T07:36:57.877Z,0.83
2023-02-18T07:39:24.415Z,0.50
2023-02-18T07:41:51.131Z,0.60
2023-02-18T07:44:17.632Z,0.63
2023-02-18T07:46:45.246Z,0.50
2023-02-18T07:49:12.571Z,0.80
2023-02-18T07:51:40.258Z,0.77
2023-02-18T07:54:06.807Z,1.30
2023-02-18T07:56:33.278Z,1.17
2023-02-18T07:58:59.843Z,1.80
2023-02-18T08:01:26.335Z,2.00
2023-02-18T08:03:52.839Z,1.60
2023-02-18T08:06:19.333Z,2.00
2023-02-18T08:08:45.846Z,1.60
2023-02-18T08:11:19.021Z,1.60
2023-02-18T08:13:47.181Z,1.70
2023-02-18T08:16:13.938Z,1.60
2023-02-18T08:18:40.500Z,1.53
2023-02-18T08:21:06.974Z,2.30
2023-02-18T08:23:33.538Z,1.80
2023-02-18T08:26:00.041Z,1.60
2023-02-18T08:28:26.735Z,1.80
2023-02-18T08:30:53.316Z,1.30
2023-02-18T08:33:19.863Z,1.97
2023-02-18T08:35:46.355Z,1.60
2023-02-18T08:38:12.950Z,1.37
2023-02-18T08:40:40.822Z,1.47
2023-02-18T08:43:07.427Z,1.60
2023-02-18T08:45:35.978Z,1.40
2023-02-18T08:48:16.594Z,1.60
2023-02-18T08:50:46.693Z,1.40
2023-02-18T08:53:13.230Z,1.17
2023-02-18T08:55:39.714Z,1.00
2023-02-18T08:58:06.755Z,1.60
2023-02-18T09:00:33.292Z,1.10
2023-02-18T09:02:59.962Z,1.50
2023-02-18T09:05:26.454Z,1.40
2023-02-18T09:07:52.923Z,1.70
2023-02-18T09:10:19.421Z,1.00
2023-02-18T09:12:45.898Z,0.63
2023-02-18T09:15:12.578Z,1.10
2023-02-18T09:17:39.129Z,1.00
2023-02-18T09:20:05.625Z,0.60
2023-02-18T09:22:32.768Z,0.87
2023-02-18T09:24:59.268Z,0.60
2023-02-18T09:27:25.894Z,1.17
2023-02-18T09:29:52.448Z,0.70
2023-02-18T09:32:32.439Z,0.90
2023-02-18T09:35:00.438Z,1.27
2023-02-18T09:37:26.964Z,1.20
2023-02-18T09:39:53.564Z,0.97
2023-02-18T09:42:20.052Z,1.23
2023-02-18T09:44:46.555Z,1.37
2023-02-18T09:47:13.022Z,1.20
2023-02-18T09:49:39.524Z,1.37
2023-02-18T09:52:06.104Z,1.20
2023-02-18T09:54:32.610Z,1.20
2023-02-18T09:56:59.109Z,1.40
2023-02-18T09:59:25.600Z,1.43
2023-02-18T10:02:02.346Z,1.50
2023-02-18T10:04:31.168Z,1.77
2023-02-18T10:06:58.220Z,2.00
2023-02-18T10:09:28.066Z,2.30
2023-02-18T10:11:55.356Z,2.57
2023-02-18T10:14:25.046Z,2.60
2023-02-18T10:16:51.578Z,1.77
2023-02-18T10:19:18.068Z,2.43
2023-02-18T10:21:44.558Z,3.13
2023-02-18T10:24:11.074Z,2.73
2023-02-18T10:26:37.573Z,2.77
2023-02-18T10:29:04.093Z,3.17
2023-02-18T10:31:30.745Z,3.20
2023-02-18T10:33:58.203Z,3.60
2023-02-18T10:36:25.697Z,2.83
2023-02-18T10:38:52.167Z,2.83
2023-02-18T10:41:18.658Z,2.70
2023-02-18T10:43:45.137Z,3.27
2023-02-18T10:46:13.490Z,2.67
2023-02-18T10:48:40.261Z,2.40
2023-02-18T10:51:07.155Z,3.00
2023-02-18T10:53:34.098Z,3.57
2023-02-18T10:56:00.629Z,2.63
2023-02-18T10:58:27.277Z,3.10
2023-02-18T11:00:53.838Z,2.33
2023-02-18T11:03:20.363Z,2.30
2023-02-18T11:05:47.077Z,1.47
2023-02-18T11:08:13.594Z,1.90
2023-02-18T11:10:40.162Z,2.03
2023-02-18T11:13:06.694Z,1.93
2023-02-18T11:15:33.175Z,2.23
2023-02-18T11:17:59.964Z,1.80
2023-02-18T11:20:26.516Z,2.30
2023-02-18T11:22:53.148Z,2.67
2023-02-18T11:25:19.646Z,3.27
2023-02-18T11:27:46.141Z,1.90
2023-02-18T11:30:12.676Z,2.53
2023-02-18T11:32:39.281Z,1.77
2023-02-18T11:35:05.802Z,1.80
2023-02-18T11:37:32.316Z,1.43
2023-02-18T11:39:58.844Z,1.73
2023-02-18T11:42:26.146Z,2.00
2023-02-18T11:44:52.831Z,1.70
2023-02-18T11:47:22.432Z,1.67
2023-02-18T11:49:48.929Z,1.70
2023-02-18T11:52:15.545Z,1.30
2023-02-18T11:54:42.138Z,1.43
2023-02-18T11:57:08.661Z,1.40
2023-02-18T11:59:35.166Z,1.03
2023-02-18T12:02:01.657Z,0.80
2023-02-18T12:04:28.257Z,1.13
2023-02-18T12:06:54.755Z,0.90
2023-02-18T12:09:21.445Z,1.13
2023-02-18T12:11:47.951Z,0.87
2023-02-18T12:14:14.514Z,0.80
2023-02-18T12:16:41.196Z,0.60
2023-02-18T12:19:07.933Z,1.20
2023-02-18T12:21:34.396Z,0.67
2023-02-18T12:24:00.877Z,1.03
2023-02-18T12:26:27.510Z,0.87
2023-02-18T12:28:53.981Z,0.80
2023-02-18T12:31:20.608Z,0.73
2023-02-18T12:33:47.155Z,0.70
2023-02-18T12:36:13.727Z,0.70
2023-02-18T12:38:40.217Z,0.70
2023-02-18T12:41:06.969Z,0.67
2023-02-18T12:43:33.527Z,0.90
2023-02-18T12:46:00.178Z,0.80
2023-02-18T12:48:26.681Z,0.40
2023-02-18T12:50:53.182Z,0.60
2023-02-18T12:53:19.694Z,1.13
2023-02-18T12:55:46.157Z,0.90
2023-02-18T12:58:12.678Z,0.70
2023-02-18T13:00:39.170Z,0.80
2023-02-18T13:03:05.676Z,0.50
2023-02-18T13:05:32.215Z,0.80
2023-02-18T13:07:58.765Z,0.50
2023-02-18T13:10:25.297Z,0.53
2023-02-18T13:12:51.820Z,0.57
2023-02-18T13:15:18.292Z,0.50
2023-02-18T13:17:44.823Z,0.60
2023-02-18T13:20:11.297Z,0.63
2023-02-18T13:22:37.788Z,1.10
2023-02-18T13:25:04.296Z,0.70
2023-02-18T13:27:30.784Z,1.00
2023-02-18T13:29:57.421Z,0.90
2023-02-18T13:32:23.995Z,0.90
2023-02-18T13:34:50.554Z,0.97
2023-02-18T13:37:17.046Z,1.07
2023-02-18T13:39:43.532Z,0.90
2023-02-18T13:42:10.066Z,1.00
2023-02-18T13:44:36.542Z,0.80
2023-02-18T13:47:03.024Z,0.70
2023-02-18T13:49:29.542Z,1.17
2023-02-18T13:51:56.048Z,1.03
2023-02-18T13:54:22.572Z,1.10
2023-02-18T13:56:50.829Z,1.07
2023-02-18T13:59:17.300Z,1.50
2023-02-18T14:01:43.813Z,1.10
2023-02-18T14:04:10.290Z,1.10
2023-02-18T14:06:39.008Z,1.00
2023-02-18T14:09:05.625Z,0.90
2023-02-18T14:11:32.137Z,1.40
2023-02-18T14:13:58.645Z,1.30
2023-02-18T14:16:25.133Z,1.07
2023-02-18T14:18:51.632Z,1.57
2023-02-18T14:21:18.119Z,1.20
2023-02-18T14:23:45.063Z,1.70
2023-02-18T14:26:11.562Z,1.27
2023-02-18T14:28:38.161Z,1.27
2023-02-18T14:31:04.795Z,1.20
2023-02-18T14:33:31.305Z,1.00
2023-02-18T14:35:57.820Z,1.67
2023-02-18T14:38:24.303Z,1.37
2023-02-18T14:40:50.782Z,2.07
2023-02-18T14:43:17.300Z,1.70
2023-02-18T14:45:43.801Z,1.63
2023-02-18T14:48:11.247Z,1.50
2023-02-18T14:50:39.204Z,2.10
2023-02-18T14:53:05.706Z,1.93
2023-02-18T14:55:32.255Z,1.40
2023-02-18T14:57:58.846Z,1.53
2023-02-18T15:00:25.476Z,2.53
2023-02-18T15:02:52.040Z,2.30
2023-02-18T15:05:18.680Z,2.50
2023-02-18T15:07:45.234Z,2.87
2023-02-18T15:10:11.708Z,2.00
2023-02-18T15:12:38.326Z,2.77
2023-02-18T15:15:05.010Z,3.10
2023-02-18T15:17:31.938Z,2.93
2023-02-18T15:19:58.479Z,4.67
2023-02-18T15:22:25.008Z,4.17
2023-02-18T15:24:51.547Z,4.63
2023-02-18T15:27:18.039Z,4.30
2023-02-18T15:29:44.516Z,4.47
2023-02-18T15:32:11.290Z,4.30
2023-02-18T15:34:37.963Z,3.90
2023-02-18T15:37:04.540Z,4.27
2023-02-18T15:39:32.605Z,4.60
2023-02-18T15:41:59.663Z,5.10
2023-02-18T15:44:26.207Z,5.30
2023-02-18T15:46:52.700Z,5.10
2023-02-18T15:49:19.182Z,4.43
2023-02-18T15:51:45.655Z,5.03
2023-02-18T15:54:12.157Z,5.60
2023-02-18T15:56:38.674Z,4.47
2023-02-18T15:59:05.182Z,5.03
2023-02-18T16:01:31.671Z,4.87
2023-02-18T16:03:58.221Z,4.73
2023-02-18T16:06:24.696Z,7.00
2023-02-18T16:08:51.396Z,5.50
2023-02-18T16:11:17.852Z,4.90
2023-02-18T16:13:44.319Z,4.47
2023-02-18T16:16:11.191Z,4.30
2023-02-18T16:18:37.936Z,4.80
2023-02-18T16:21:04.481Z,4.23
2023-02-18T16:23:31.262Z,4.30
2023-02-18T16:25:57.742Z,9.27
2023-02-18T16:28:24.289Z,3.70
2023-02-18T16:30:50.842Z,4.53
2023-02-18T16:33:17.323Z,4.80
2023-02-18T16:35:49.973Z,6.30
2023-02-18T16:38:17.311Z,5.80
2023-02-18T16:40:43.911Z,5.70
2023-02-18T16:43:10.421Z,6.90
2023-02-18T16:45:36.944Z,6.73
2023-02-18T16:48:03.643Z,6.67
2023-02-18T16:50:30.918Z,7.20
2023-02-18T16:52:57.493Z,7.03
2023-02-18T16:55:23.963Z,7.73
2023-02-18T16:57:50.446Z,7.87
2023-02-18T17:00:17.087Z,8.13
2023-02-18T17:02:43.634Z,11.13
2023-02-18T17:05:25.505Z,8.07
2023-02-18T17:07:52.783Z,8.53
2023-02-18T17:10:19.382Z,8.50
2023-02-18T17:12:45.873Z,10.13
2023-02-18T17:15:12.380Z,9.53
2023-02-18T17:17:38.870Z,11.43
2023-02-18T17:20:05.354Z,12.80
2023-02-18T17:22:31.879Z,10.97
2023-02-18T17:24:58.407Z,10.47
2023-02-18T17:27:24.879Z,10.77
2023-02-18T17:29:51.372Z,11.77
2023-02-18T17:32:18.451Z,11.00
2023-02-18T17:34:45.015Z,11.10
2023-02-18T17:37:11.510Z,10.50
2023-02-18T17:39:38.011Z,10.20
2023-02-18T17:42:04.520Z,10.80
2023-02-18T17:44:31.208Z,12.30
2023-02-18T17:46:57.762Z,10.60
2023-02-18T17:49:24.324Z,11.00
2023-02-18T17:51:51.949Z,13.33
2023-02-18T17:54:18.480Z,11.97
2023-02-18T17:56:45.042Z,12.47
2023-02-18T17:59:11.594Z,16.10
2023-02-18T18:01:38.366Z,12.80
2023-02-18T18:04:05.168Z,12.93
2023-02-18T18:06:35.886Z,10.37
2023-02-18T18:09:02.390Z,13.07
2023-02-18T18:11:28.989Z,11.43
2023-02-18T18:13:55.534Z,12.80
2023-02-18T18:16:22.140Z,10.30
2023-02-18T18:18:48.706Z,12.77
2023-02-18T18:21:16.184Z,11.47
2023-02-18T18:23:42.729Z,10.93
2023-02-18T18:26:09.199Z,10.83
2023-02-18T18:28:37.600Z,10.47
2023-02-18T18:31:04.323Z,10.43
2023-02-18T18:33:30.851Z,9.80
2023-02-18T18:35:57.390Z,11.07
2023-02-18T18:38:23.900Z,9.50
2023-02-18T18:40:50.442Z,10.10
2023-02-18T18:43:16.979Z,10.77
2023-02-18T18:45:43.475Z,12.00
2023-02-18T18:48:09.990Z,12.80
2023-02-18T18:50:41.768Z,10.20
2023-02-18T18:53:08.257Z,9.40
2023-02-18T18:55:34.751Z,10.80
2023-02-18T18:58:01.260Z,10.07
2023-02-18T19:00:27.813Z,12.27
2023-02-18T19:02:54.416Z,9.87
2023-02-18T19:05:20.967Z,11.73
2023-02-18T19:07:47.469Z,10.00
2023-02-18T19:10:14.044Z,9.83
2023-02-18T19:12:40.562Z,10.60
2023-02-18T19:15:07.067Z,9.27
2023-02-18T19:17:33.567Z,10.97
2023-02-18T19:20:00.241Z,9.93
2023-02-18T19:22:26.727Z,10.40
2023-02-18T19:24:53.282Z,12.70
2023-02-18T19:27:19.784Z,10.97
2023-02-18T19:29:49.785Z,10.40
2023-02-18T19:32:16.302Z,11.17
2023-02-18T19:34:42.770Z,10.60
2023-02-18T19:37:09.309Z,12.50
2023-02-18T19:39:35.878Z,11.10
2023-02-18T19:42:02.352Z,13.43
2023-02-18T19:44:28.834Z,10.20
2023-02-18T19:46:55.336Z,11.17
2023-02-18T19:49:21.841Z,9.53
2023-02-18T19:51:48.339Z,11.57
2023-02-18T19:54:15.312Z,10.50
2023-02-18T19:56:41.786Z,12.20
2023-02-18T19:59:08.267Z,9.37
2023-02-18T20:01:34.863Z,9.33
2023-02-18T20:04:01.373Z,9.30
2023-02-18T20:06:27.889Z,9.80
2023-02-18T20:08:55.247Z,8.90
2023-02-18T20:11:21.872Z,7.57
2023-02-18T20:13:48.464Z,6.67
2023-02-18T20:16:14.985Z,8.20
2023-02-18T20:18:41.493Z,6.83
2023-02-18T20:21:08.371Z,7.80
2023-02-18T20:23:35.062Z,6.30
2023-02-18T20:26:04.023Z,6.87
2023-02-18T20:28:30.497Z,6.77
2023-02-18T20:30:56.995Z,6.10
2023-02-18T20:33:23.492Z,6.40
2023-02-18T20:35:49.998Z,4.87
2023-02-18T20:38:18.568Z,5.20
2023-02-18T20:40:45.266Z,5.50
2023-02-18T20:43:11.750Z,4.27
2023-02-18T20:45:38.254Z,5.70
2023-02-18T20:48:04.823Z,6.50
2023-02-18T20:50:31.366Z,8.00
2023-02-18T20:52:57.854Z,9.77
2023-02-18T20:55:24.912Z,8.90
2023-02-18T20:57:51.382Z,10.10
2023-02-18T21:00:17.933Z,9.20
2023-02-18T21:02:44.511Z,9.53
2023-02-18T21:05:11.029Z,9.30
2023-02-18T21:07:37.607Z,9.70
2023-02-18T21:10:04.328Z,8.93
2023-02-18T21:12:31.100Z,10.60
2023-02-18T21:14:57.624Z,11.30
2023-02-18T21:17:24.161Z,10.50
2023-02-18T21:19:50.845Z,10.70
2023-02-18T21:22:17.409Z,11.30
2023-02-18T21:24:44.184Z,11.80
2023-02-18T21:27:10.746Z,11.70
2023-02-18T21:29:37.266Z,11.07
2023-02-18T21:32:03.875Z,11.40
2023-02-18T21:34:30.430Z,12.53
2023-02-18T21:36:56.960Z,11.73
2023-02-18T21:39:23.570Z,10.80
2023-02-18T21:41:50.216Z,10.80
2023-02-18T21:44:16.769Z,11.30
2023-02-18T21:46:43.373Z,13.50
2023-02-18T21:49:10.030Z,11.40
2023-02-18T21:51:55.478Z,12.03
2023-02-18T21:54:22.001Z,11.40
2023-02-18T21:56:48.602Z,12.93
2023-02-18T21:59:15.142Z,11.10
2023-02-18T22:01:41.764Z,11.20
2023-02-18T22:04:08.321Z,13.43
2023-02-18T22:06:34.828Z,12.20
2023-02-18T22:09:01.785Z,11.63
2023-02-18T22:11:28.322Z,13.37
2023-02-18T22:13:54.958Z,13.30
2023-02-18T22:16:21.578Z,10.40
2023-02-18T22:18:48.147Z,11.50
2023-02-18T22:21:14.759Z,12.00
2023-02-18T22:23:41.280Z,10.97
2023-02-18T22:26:07.856Z,10.37
2023-02-18T22:28:34.400Z,11.07
2023-02-18T22:31:00.973Z,10.47
2023-02-18T22:33:27.576Z,9.70
2023-02-18T22:35:54.295Z,11.10
2023-02-18T22:38:21.015Z,10.33
2023-02-18T22:40:49.807Z,8.53
2023-02-18T22:43:17.299Z,8.50
2023-02-18T22:45:43.804Z,8.90
2023-02-18T22:48:10.354Z,8.27
2023-02-18T22:50:36.897Z,7.87
2023-02-18T22:53:03.416Z,8.10
2023-02-18T22:55:29.923Z,7.43
2023-02-18T22:57:56.456Z,7.00
2023-02-18T23:00:23.000Z,6.60
2023-02-18T23:02:49.680Z,6.60
2023-02-18T23:05:16.192Z,6.07
2023-02-18T23:07:42.685Z,6.80
2023-02-18T23:10:09.221Z,7.37
2023-02-18T23:12:35.773Z,8.97
2023-02-18T23:15:02.379Z,8.40
2023-02-18T23:17:28.906Z,7.90
2023-02-18T23:19:55.457Z,7.97
2023-02-18T23:22:22.082Z,8.03
2023-02-18T23:24:49.485Z,8.80
2023-02-18T23:27:16.130Z,7.00
2023-02-18T23:29:42.731Z,9.30
2023-02-18T23:32:09.250Z,8.37
2023-02-18T23:34:36.143Z,9.70
2023-02-18T23:37:02.646Z,8.10
2023-02-18T23:39:29.555Z,8.50
2023-02-18T23:41:56.228Z,8.87
2023-02-18T23:44:22.806Z,9.10
2023-02-18T23:46:49.326Z,8.67
2023-02-18T23:49:15.973Z,8.40
2023-02-18T23:51:42.540Z,8.80
2023-02-18T23:54:09.081Z,9.20
2023-02-18T23:56:35.571Z,8.50
2023-02-18T23:59:02.152Z,8.17
